EGGPEGNX

Guest
Details From EGGP - Liverpool
To EGNX - East Midlands
Flight Number -
Tags decoded
Created
Modified
Stats Distance 79 nm / 146 km
Max Altitude 0 ft / 0 m
Waypoints 5
Social Downloads 3
Likes 0
Share VATSIM

Download

Looking for another format? Having issues loading an existing format? Contact us
Advertisement - Login to hide

Notes

Requested: EGGP NANTI Y53 PEDIG EME EGNX

Route

EGGP NANTI PEDIG EME EGNX

ID Type Via Altitude Latitude Longitude Leg Dist Tot Dist Heading (true) Name
O EGGP APT - 0 ft / 0 m 53.33363˚ -2.84977˚ - 0 nm - Liverpool
NANTI FIX - 0 ft / 0 m 53.13667˚ -2.56667˚ 15 nm 15 nm 139° / 139° -
PEDIG FIX - 0 ft / 0 m 52.74667˚ -1.70278˚ 39 nm 54 nm 126° / 127° -
EME NDB - 0 ft / 0 m 52.83283˚ -1.19450˚ 19 nm 73 nm 74° / 75° East Midlands NDB
O EGNX APT - 0 ft / 0 m 52.83100˚ -1.32815˚ 4 nm 78 nm 269° / 269° East Midlands

Altitude Profile

Advertisement - Login to hide

EGGP

Details ICAO EGGP (LPL)
Name Liverpool
Region United Kingdom
Timezone Europe/London (UTC+0.0)
Stats Elevation 80 ft / 24 m (AMSL)
Location 53.333632° -2.849769°
Runways 1
Magnetic Variation 1.674° W

METAR

EGGP 150620Z 33007KT CAVOK 04/02 Q0996

Decode

TAF

TAF EGGP 150519Z 1506/1606 33010KT 9999 SCT035 PROB30 TEMPO 1506/1518 35015G25KT

Decode

Departure Runways

ID Width Length Bearing (true) Bearing (mag) Surface Threshold Offset Overrun Length
09 151 ft / 46 m 7,466 ft / 2,276 m 85.59° 87.26° Asphalt 180 ft / 55 m 0 ft / 0 m
27 151 ft / 46 m 7,466 ft / 2,276 m 265.61° 267.28° Asphalt 0 ft / 0 m 0 ft / 0 m

EGNX

Details ICAO EGNX (EMA)
Name East Midlands
Region United Kingdom
Timezone Europe/London (UTC+0.0)
Stats Elevation 306 ft / 93 m (AMSL)
Location 52.830999° -1.328155°
Runways 1
Magnetic Variation 1.034° W

METAR

EGNX 150620Z 33011KT CAVOK 02/00 Q0993

Decode

TAF

TAF EGNX 150519Z 1506/1606 34010KT 9999 SCT030 TEMPO 1506/1517 33015G25KT 6000 SHRA BKN012 PROB30 TEMPO 1506/1509 3000 RASN BKN005 BECMG 1521/1524 VRB05KT

Decode

Destination Runways

ID Width Length Bearing (true) Bearing (mag) Surface Threshold Offset Overrun Length
09 151 ft / 46 m 9,462 ft / 2,884 m 88.25° 89.28° Asphalt 587 ft / 179 m 92 ft / 28 m
27 151 ft / 46 m 9,462 ft / 2,884 m 268.29° 269.32° Asphalt 423 ft / 129 m 98 ft / 30 m

Approach Navaids

Runway Type Ident Frequency Range Bearing (true) Bearing (mag) Slope Elevation
09 Localiser IEMW 109.35 MHz 18 nm / 33 km 88.30° 89.33° - 306 ft / 93 m (AMSL)
09 Glidescope IEMW 109.35 MHz 10 nm / 19 km 88.27° 89.30° 3.00° 306 ft / 93 m (AMSL)
09 DME IEMW 109.35 MHz 18 nm / 33 km - - - 322 ft / 98 m (AMSL)
27 Localiser IEME 109.35 MHz 18 nm / 33 km 268.25° 269.28° - 306 ft / 93 m (AMSL)
27 Glidescope IEME 109.35 MHz 10 nm / 19 km 268.27° 269.30° 3.00° 306 ft / 93 m (AMSL)
27 DME IEME 109.35 MHz 18 nm / 33 km - - - 322 ft / 98 m (AMSL)

Popular Alternatives